Station: Andamooka

  Atmospheric Gas Attenuation - ITU Rec 676-11   --------------- db/100km ---------------
Date Time Temp RH % AH g/m3 Dew Point Wind Direction Speed kph Gust kph Barometer mB Rainfall Since 9am 24GHz 47GHz 76GHz 122GHz 134GHz 241GHz
27 09:00 15 39 5 1.3 20 1013.1 0 11.9 20.2 26.0 67.5 53.2 180.0
26 09:00 12.3 49 5.32 1.9 28 1013.1 0 12.7 21.2 28.0 72.8 58.8 199.3
25 09:00 12.1 50 5.36 2.2 33 1013.1 0 12.8 21.3 28.2 73.3 59.4 201.5
24 09:00 14 51 6.15 4 7 1013.1 0 14.4 22.1 30.3 79.2 67.3 229.6
23 09:00 15.5 59 7.8 7.7 11 1013.1 0 17.8 24.2 35.9 94.0 86.1 295.6
22 09:00 16.1 58 7.95 8 19 1013.1 0 18.1 24.2 36.2 94.8 87.3 299.9
21 09:00 19 34 5.54 3 6 1013.1 0.1 12.9 20.1 26.5 69.0 56.5 192.1
20 09:00 19.9 66 11.34 13.5 22 1013.1 0 25.1 28.5 47.5 125.1 125.9 435.6
19 09:00 18.7 80 12.81 15.3 11 1013.1 13 28.3 31.4 54.5 143.6 148.3 513.6
18 09:00 25 34 7.83 8.3 11 1013.1 0 17.5 21.8 32.0 83.8 76.8 264.1
17 09:00 27.2 24 6.25 4.8 32 1013.1 0 14.1 19.3 26.2 68.3 58.2 199.2
16 09:00 21.9 30 5.79 3.5 4 1013.1 0 13.3 19.8 26.4 68.8 57.2 194.8
15 09:00 19.2 42 6.92 6.2 6 1013.1 0 15.8 21.9 31.1 81.4 71.8 246.1
14 09:00 15.8 44 5.92 3.7 26 1013.1 0 13.8 21.3 28.9 75.3 63.1 215.1
13 09:00 17.7 63 9.5 10.7 33 1013.1 0 21.3 26.2 41.4 108.7 105.0 362.3
12 09:00 22.2 37 7.26 6.9 30 1013.1 0 16.4 21.7 31.2 81.5 73.0 250.6
11 09:00 23 26 5.34 2.5 22 1013.1 0 12.4 19.0 24.6 64.1 51.7 175.8
10 09:00 21.6 47 8.91 10 11 1013.1 0 19.9 24.2 37.2 97.7 92.8 319.9
09 09:00 21.6 38 7.21 6.8 50 1013.1 0 16.3 21.8 31.2 81.7 73.0 250.4
08 09:00 24.5 21 4.7 1.2 7 1013.1 0 11.0 17.9 22.3 57.7 44.4 150.1
07 09:00 21.2 28 5.19 2.2 28 1013.1 0 12.1 19.1 24.7 64.2 51.3 174.1
06 09:00 19 25 4.07 -1.2 6 1013.1 0 9.8 18.1 21.8 56.3 40.9 137.1
05 09:00 18 34 5.22 2 0 1013.1 0 12.3 19.8 25.8 67.0 53.7 182.0
04 09:00 16.2 50 6.89 5.9 9 1013.1 0 15.8 22.6 32.2 84.1 74.2 254.1
03 09:00 18.1 36 5.56 3.1 11 1013.1 0 13.0 20.3 26.9 69.9 57.3 195.0
02 09:00 19.7 45 7.64 7.4 22 1013.1 0 17.3 22.8 33.5 87.6 79.8 273.9
01 09:00 14 38 4.58 0 24 1013.1 0 11.0 19.8 24.8 64.4 49.1 165.5
31 09:00 12.4 56 6.12 4 22 1013.1 0 14.4 22.4 30.8 80.5 68.3 232.9
30 09:00 16.8 60 8.58 9.1 28 1013.1 0 19.4 25.0 38.2 100.3 94.4 325.0
29 09:00 17.1 37 5.39 2.4 26 1013.1 0 12.7 20.3 26.6 69.2 56.1 190.7
28 09:00 15.6 46 6.12 4 11 1013.1 14.2 21.6 29.6 77.3 65.6 223.8
27 09:00 14.7 31 3.9 -2.1 9 1013.1 0 9.6 18.8 22.4 57.9 41.2 137.9
26 09:00 14.7 38 4.78 0.8 11 1013.1 0 11.4 19.9 25.3 65.7 50.9 172.0
25 09:00 14 42 5.07 1.3 11 1013.1 0 12.1 20.5 26.5 68.9 54.7 185.1
24 09:00 12.1 48 5.15 1.6 4 1013.1 0 12.3 21.0 27.4 71.3 56.9 192.7
23 09:00 10.9 61 6.07 3.7 4 1013.1 0 14.3 22.7 31.2 81.5 69.0 235.1
22 09:00 10.7 72 7.07 5.8 6 1013.1 0 16.5 24.3 35.2 92.0 81.9 280.4
21 09:00 14.5 60 7.46 7 24 1013.1 0 17.1 23.9 35.0 91.7 82.9 284.3
20 09:00 13 74 8.39 8.6 11 1013.1 0 19.2 25.8 39.3 103.2 96.6 332.1
19 09:00 13.7 57 6.75 5.4 24 1013.1 0 15.7 23.0 32.7 85.4 74.9 256.1
18 09:00 14.4 43 5.32 2.2 11 1013.1 0 12.6 20.8 27.2 70.9 57.2 194.2
17 09:00 14.4 45 5.56 2.8 22 1013.1 0 13.1 21.1 28.1 73.2 60.0 204.0
16 09:00 13.5 74 8.66 9 6 1013.1 0 19.7 26.1 40.2 105.5 99.6 342.5
15 09:00 11.1 87 8.76 9.1 11 1013.1 0 20.1 27.0 41.8 109.9 104.1 358.0
14 09:00 14.2 76 9.28 10 6 1013.1 0.4 21.0 26.9 42.3 111.2 106.9 368.4
12 09:00 12.8 95 10.64 12.1 0 1013.1 3 24.0 29.7 48.9 128.8 128.0 441.9
11 09:00 12.2 73 7.88 7.5 15 1013.1 0.2 18.1 25.2 37.7 98.8 90.8 311.9
10 09:00 9.8 70 6.5 4.7 1013.1 15.3 23.6 33.3 87.1 75.5 257.6
09 09:00 11 90 9.01 9.4 11 1013.1 0.3 20.6 27.4 43.0 112.8 107.7 370.6
08 09:00 7.5 93 7.45 6.4 15 1013.1 0.1 17.4 25.8 38.2 100.1 90.6 310.3
07 09:00 7 85 6.59 4.7 19 1013.1 1 15.6 24.5 34.9 91.2 79.4 271.1
06 09:00 9.5 72 6.56 4.8 19 1013.1 15.4 23.8 33.7 88.0 76.5 261.3
05 09:00 10.8 41 4.05 -1.7 11 1013.1 0 10.0 19.8 24.0 62.1 45.0 150.5
04 09:00 12 71 7.57 7 17 1013.1 0 17.5 24.7 36.5 95.8 87.0 298.4
03 09:00 12.6 45 4.98 1.1 0 1013.1 0 11.9 20.7 26.6 69.3 54.6 184.6
02 09:00 13 47 5.33 2 0 1013.1 0 12.7 21.1 27.8 72.2 58.4 198.0
01 09:00 12.7 57 6.35 4.4 6 1013.1 0 14.8 22.7 31.6 82.5 70.9 241.9
31 09:00 13 66 7.49 6.8 0 1013.1 0 17.3 24.3 35.8 93.7 84.9 291.1
30 09:00 12.3 82 8.9 9.3 11 1013.1 0 20.3 26.8 41.8 109.7 104.4 359.2
29 09:00 10.5 55 5.34 2 0 1013.1 0 12.8 21.7 28.6 74.6 60.4 204.7
28 09:00 9 81 7.14 6 11 1013.1 0 16.7 24.9 36.2 94.8 84.7 289.8
27 09:00 11.2 85 8.62 8.8 17 1013.1 0 19.8 26.7 41.2 108.2 102.0 350.9
26 09:00 10.6 81 7.91 7.5 7 1013.1 0 18.3 25.7 38.6 101.2 93.1 319.7
25 09:00 10 84 7.9 7.5 6 1013.1 0 18.3 25.8 38.8 101.8 93.7 321.7
24 09:00 10.6 57 5.56 2.5 0 1013.1 0 13.2 22.0 29.4 76.7 63.0 213.8
23 09:00 9.4 64 5.79 2.9 0 1013.1 0 13.8 22.6 30.7 80.2 66.8 227.1
22 09:00 8.7 73 6.32 4.2 13 1013.1 0 14.9 23.6 33.1 86.4 74.2 253.0
21 09:00 10.2 69 6.57 4.9 15 1013.1 0 15.4 23.6 33.4 87.4 76.0 259.4
20 09:00 10.5 71 6.89 5.5 11 1013.1 0 16.1 24.1 34.5 90.4 79.8 272.9
19 09:00 10.5 83 8.05 7.8 9 1013.1 0 18.6 26.0 39.2 102.8 95.2 326.7
18 09:00 10 60 5.64 2.6 11 1013.1 0 13.4 22.3 29.9 78.1 64.4 218.9
17 09:00 9.3 61 5.48 2.2 0 1013.1 0 13.1 22.2 29.6 77.2 63.0 213.8
16 09:00 1013.1
15 09:00 9.1 70 6.21 3.9 0 1013.1 0 14.7 23.4 32.5 84.8 72.4 246.7
14 09:00 9.7 79 7.29 6.3 0 1013.1 0 17.0 24.9 36.5 95.6 85.9 294.2
13 09:00 9.1 87 7.72 7 9 1013.1 0.1 17.9 25.8 38.5 101.0 92.4 316.8
12 09:00 7 93 7.21 5.9 6 1013.1 2 16.9 25.6 37.4 98.0 87.9 300.6
11 09:00 8.8 82 7.14 6 9 1013.1 0 16.7 24.9 36.3 95.0 84.9 290.5
10 09:00 10.8 52 5.14 1.3 0 1013.1 0 12.3 21.3 27.8 72.4 57.7 195.4
09 09:00 4.8 65 4.36 -1.1 0 1013.1 0 10.9 21.6 26.9 70.0 52.3 175.7
08 09:00 7.1 63 4.92 0.6 0 1013.1 0 12.0 21.9 28.3 73.6 57.7 195.0
07 09:00 7.5 66 5.29 1.7 0 1013.1 0 12.8 22.3 29.5 77.0 62.1 210.3
06 09:00 9.2 79 7.06 5.7 1013.1 16.5 24.7 35.8 93.7 83.4 285.3
05 09:00 10 84 7.9 7.5 9 1013.1 0 18.3 25.8 38.8 101.8 93.7 321.7
04 09:00 8.5 85 7.26 6.1 6 1013.1 0 17.0 25.2 36.9 96.7 86.8 297.3
03 09:00 11.2 78 7.91 7.5 15 1013.1 0 18.2 25.5 38.3 100.4 92.4 317.2
02 09:00 10.1 86 8.13 7.8 0 1013.1 18.8 26.2 39.7 104.2 96.7 332.2
01 09:00 12 53 5.65 2.7 7 1013.1 0 13.4 21.8 29.3 76.3 62.9 213.9
30 09:00 7.5 62 4.96 0.8 6 1013.1 0 12.1 21.8 28.3 73.6 57.9 195.7
29 09:00 7.9 60 4.93 0.7 11 1013.1 0 12.0 21.7 28.0 73.0 57.3 193.5
28 09:00 9.6 58 5.31 1.7 4 1013.1 0 12.7 21.9 28.9 75.2 60.7 205.7
27 09:00 8.7 56 4.84 0.5 0 1013.1 0 11.8 21.4 27.4 71.3 55.6 187.7
26 09:00 11.7 58 6.07 3.7 11 1013.1 0 14.3 22.5 30.9 80.7 68.3 232.8
25 09:00 10.8 60 5.93 3.3 0 1013.1 14.0 22.5 30.7 80.2 67.4 229.3
24 09:00 8.3 73 6.16 3.7 0 1013.1 0 14.6 23.5 32.6 85.2 72.5 247.0
23 09:00 10.2 84 8 7.7 4 1013.1 0 18.5 26.0 39.1 102.7 94.9 325.6
22 09:00 11.7 83 8.68 8.9 11 1013.1 0 19.9 26.6 41.2 108.2 102.2 351.5
21 09:00 11.4 82 8.42 8.4 11 1013.1 0 19.3 26.3 40.3 105.7 99.0 340.4
20 09:00 10.7 67 6.58 4.8 15 1013.1 0 15.4 23.5 33.2 86.9 75.6 258.3
19 09:00 12.6 48 5.31 2 11 1013.1 0 12.6 21.2 27.8 72.4 58.4 198.2

Last Refresh: 27-Sep-2020 12:59:01

Most of the information presented on this site is sourced from the Bureau of Meteorology.  Copyright in all material sourced from the Bureau of Meteorology resides with the Commonwealth of Australia.